createdAt,value
2022-12-03T00:01:19.490Z,2.43
2022-12-03T00:04:21.088Z,2.42
2022-12-03T00:07:22.643Z,2.40
2022-12-03T00:10:24.296Z,2.35
2022-12-03T00:13:25.879Z,2.34
2022-12-03T00:16:27.558Z,2.30
2022-12-03T00:19:29.247Z,2.28
2022-12-03T00:22:30.781Z,2.27
2022-12-03T00:25:32.426Z,2.26
2022-12-03T00:28:33.969Z,2.22
2022-12-03T00:31:35.618Z,2.21
2022-12-03T00:34:37.289Z,2.21
2022-12-03T00:37:38.845Z,2.16
2022-12-03T00:40:40.365Z,2.10
2022-12-03T00:43:41.953Z,2.06
2022-12-03T00:46:43.580Z,2.02
2022-12-03T00:49:45.180Z,1.99
2022-12-03T00:52:46.836Z,1.93
2022-12-03T00:55:50.627Z,1.89
2022-12-03T00:58:52.198Z,1.80
2022-12-03T01:01:53.834Z,1.76
2022-12-03T01:04:55.761Z,1.72
2022-12-03T01:07:57.685Z,1.67
2022-12-03T01:10:59.245Z,1.70
2022-12-03T01:14:00.827Z,1.69
2022-12-03T01:17:02.391Z,1.65
2022-12-03T01:20:05.444Z,1.64
2022-12-03T01:23:07.195Z,1.59
2022-12-03T01:26:08.756Z,1.58
2022-12-03T01:29:10.701Z,1.57
2022-12-03T01:32:19.329Z,1.58
2022-12-03T01:35:20.919Z,1.58
2022-12-03T01:38:22.470Z,1.57
2022-12-03T01:41:25.065Z,1.54
2022-12-03T01:44:31.192Z,1.56
2022-12-03T01:47:35.997Z,1.56
2022-12-03T01:50:38.549Z,1.57
2022-12-03T01:53:40.243Z,1.60
2022-12-03T01:56:41.909Z,1.62
2022-12-03T01:59:43.452Z,1.62
2022-12-03T02:02:46.671Z,1.58
2022-12-03T02:05:48.263Z,1.52
2022-12-03T02:08:49.922Z,1.51
2022-12-03T02:11:52.303Z,1.48
2022-12-03T02:14:54.770Z,1.46
2022-12-03T02:17:56.948Z,1.43
2022-12-03T02:21:13.656Z,1.42
2022-12-03T02:24:34.101Z,1.39
2022-12-03T02:27:35.950Z,1.40
2022-12-03T02:30:37.920Z,1.41
2022-12-03T02:33:39.720Z,1.40
2022-12-03T02:36:41.300Z,1.42
2022-12-03T02:39:49.070Z,1.45
2022-12-03T02:42:55.395Z,1.42
2022-12-03T02:46:00.206Z,1.40
2022-12-03T02:49:03.234Z,1.41
2022-12-03T02:52:04.880Z,1.40
2022-12-03T02:55:07.564Z,1.40
2022-12-03T02:58:11.035Z,1.38
2022-12-03T03:01:13.026Z,1.36
2022-12-03T03:04:15.157Z,1.33
2022-12-03T03:07:17.006Z,1.33
2022-12-03T03:10:23.001Z,1.30
2022-12-03T03:13:24.632Z,1.32
2022-12-03T03:16:27.099Z,1.34
2022-12-03T03:19:30.300Z,1.35
2022-12-03T03:22:36.966Z,1.34
2022-12-03T03:25:40.884Z,1.35
2022-12-03T03:28:46.624Z,1.34
2022-12-03T03:31:48.511Z,1.34
2022-12-03T03:34:50.377Z,1.30
2022-12-03T03:37:53.715Z,1.27
2022-12-03T03:40:57.462Z,1.26
2022-12-03T03:43:59.647Z,1.24
2022-12-03T03:47:02.075Z,1.23
2022-12-03T03:50:04.732Z,1.23
2022-12-03T03:53:06.751Z,1.24
2022-12-03T03:56:09.636Z,1.24
2022-12-03T03:59:13.559Z,1.23
2022-12-03T04:02:24.238Z,1.22
2022-12-03T04:05:26.195Z,1.24
2022-12-03T04:08:27.767Z,1.27
2022-12-03T04:11:47.859Z,1.28
2022-12-03T04:14:49.423Z,1.29
2022-12-03T04:18:10.294Z,1.27
2022-12-03T04:21:36.235Z,1.27
2022-12-03T04:24:37.770Z,1.28
2022-12-03T04:27:57.866Z,1.27
2022-12-03T04:30:59.482Z,1.25
2022-12-03T04:34:19.883Z,1.21
2022-12-03T04:37:22.042Z,1.18
2022-12-03T04:40:42.312Z,1.15
2022-12-03T04:44:02.330Z,1.07
2022-12-03T04:47:23.444Z,1.10
2022-12-03T04:50:25.015Z,1.08
2022-12-03T04:53:26.543Z,1.09
2022-12-03T04:56:28.065Z,1.06
2022-12-03T04:59:30.116Z,1.06
2022-12-03T05:02:32.632Z,1.05
2022-12-03T05:05:34.413Z,1.05
2022-12-03T05:08:36.325Z,1.00
2022-12-03T05:11:38.502Z,1.01
2022-12-03T05:14:40.010Z,1.00
2022-12-03T05:17:41.570Z,1.00
2022-12-03T05:20:45.868Z,1.02
2022-12-03T05:23:52.976Z,0.98
2022-12-03T05:26:54.499Z,0.99
2022-12-03T05:29:56.037Z,0.96
2022-12-03T05:32:57.976Z,0.92
2022-12-03T05:35:59.790Z,0.89
2022-12-03T05:39:01.509Z,0.84
2022-12-03T05:42:22.355Z,0.77
2022-12-03T05:45:25.142Z,0.70
2022-12-03T05:48:26.681Z,0.64
2022-12-03T05:51:28.224Z,0.60
2022-12-03T05:54:32.099Z,0.59
2022-12-03T05:57:33.658Z,0.55
2022-12-03T06:00:42.489Z,0.52
2022-12-03T06:03:44.648Z,0.49
2022-12-03T06:06:46.249Z,0.47
2022-12-03T06:09:50.152Z,0.43
2022-12-03T06:12:52.254Z,0.40
2022-12-03T06:15:56.613Z,0.35
2022-12-03T06:18:58.166Z,0.35
2022-12-03T06:21:59.731Z,0.31
2022-12-03T06:25:06.639Z,0.29
2022-12-03T06:28:09.105Z,0.31
2022-12-03T06:31:10.669Z,0.32
2022-12-03T06:34:12.250Z,0.30
2022-12-03T06:37:14.049Z,0.30
2022-12-03T06:40:16.719Z,0.28
2022-12-03T06:43:18.287Z,0.25
2022-12-03T06:46:19.981Z,0.24
2022-12-03T06:49:21.579Z,0.24
2022-12-03T06:52:23.082Z,0.28
2022-12-03T06:55:24.606Z,0.29
2022-12-03T06:58:26.152Z,0.34
2022-12-03T07:01:27.716Z,0.37
2022-12-03T07:04:29.310Z,0.39
2022-12-03T07:07:30.993Z,0.37
2022-12-03T07:10:34.351Z,0.38
2022-12-03T07:13:35.889Z,0.40
2022-12-03T07:16:38.428Z,0.39
2022-12-03T07:19:40.865Z,0.38
2022-12-03T07:22:42.756Z,0.38
2022-12-03T07:25:44.265Z,0.42
2022-12-03T07:28:49.743Z,0.42
2022-12-03T07:31:55.499Z,0.44
2022-12-03T07:35:05.637Z,0.42
2022-12-03T07:38:07.421Z,0.42
2022-12-03T07:41:09.067Z,0.42
2022-12-03T07:44:14.280Z,0.38
2022-12-03T07:47:17.510Z,0.38
2022-12-03T07:50:19.191Z,0.42
2022-12-03T07:53:21.081Z,0.46
2022-12-03T07:56:22.835Z,0.47
2022-12-03T07:59:24.378Z,0.49
2022-12-03T08:02:26.057Z,0.45
2022-12-03T08:05:29.563Z,0.51
2022-12-03T08:08:31.209Z,0.55
2022-12-03T08:11:33.712Z,0.55
2022-12-03T08:14:35.733Z,0.52
2022-12-03T08:17:39.217Z,0.53
2022-12-03T08:20:43.033Z,0.53
2022-12-03T08:23:44.974Z,0.55
2022-12-03T08:26:49.537Z,0.57
2022-12-03T08:29:58.290Z,0.56
2022-12-03T08:33:00.493Z,0.58
2022-12-03T08:36:12.644Z,0.56
2022-12-03T08:39:33.804Z,0.57
2022-12-03T08:42:42.192Z,0.59
2022-12-03T08:45:44.858Z,0.58
2022-12-03T08:48:49.087Z,0.61
2022-12-03T08:51:57.305Z,0.62
2022-12-03T08:55:00.354Z,0.61
2022-12-03T08:58:33.085Z,0.60
2022-12-03T09:01:48.150Z,0.56
2022-12-03T09:04:54.783Z,0.53
2022-12-03T09:07:56.674Z,0.51
2022-12-03T09:10:58.258Z,0.51
2022-12-03T09:13:59.807Z,0.50
2022-12-03T09:17:01.445Z,0.53
2022-12-03T09:20:04.808Z,0.54
2022-12-03T09:23:06.776Z,0.56
2022-12-03T09:26:09.476Z,0.59
2022-12-03T09:29:12.562Z,0.59
2022-12-03T09:32:18.352Z,0.57
2022-12-03T09:35:20.410Z,0.56
2022-12-03T09:38:21.994Z,0.60
2022-12-03T09:41:24.992Z,0.67
2022-12-03T09:44:33.421Z,0.70
2022-12-03T09:47:35.473Z,0.75
2022-12-03T09:50:41.856Z,0.77
2022-12-03T09:53:43.531Z,0.79
2022-12-03T09:56:45.052Z,0.83
2022-12-03T09:59:47.049Z,0.85
2022-12-03T10:02:49.603Z,0.87
2022-12-03T10:05:51.609Z,0.90
2022-12-03T10:08:55.598Z,0.93
2022-12-03T10:11:58.984Z,0.96
2022-12-03T10:15:00.560Z,0.93
2022-12-03T10:18:18.008Z,1.04
2022-12-03T10:21:22.838Z,1.05
2022-12-03T10:24:25.500Z,1.09
2022-12-03T10:27:30.861Z,1.12
2022-12-03T10:30:32.842Z,1.13
2022-12-03T10:33:37.435Z,1.14
2022-12-03T10:36:38.980Z,1.14
2022-12-03T10:39:56.469Z,1.16
2022-12-03T10:43:19.548Z,1.13
2022-12-03T10:46:22.857Z,1.16
2022-12-03T10:49:24.479Z,1.18
2022-12-03T10:52:26.329Z,1.20
2022-12-03T10:55:33.809Z,1.20
2022-12-03T10:58:37.203Z,1.20
2022-12-03T11:01:38.825Z,1.22
2022-12-03T11:04:41.449Z,1.23
2022-12-03T11:07:43.914Z,1.23
2022-12-03T11:10:55.441Z,1.23
2022-12-03T11:13:59.150Z,1.23
2022-12-03T11:17:07.893Z,1.25
2022-12-03T11:20:24.707Z,1.25
2022-12-03T11:23:44.721Z,1.28
2022-12-03T11:26:46.194Z,1.29
2022-12-03T11:29:54.475Z,1.29
2022-12-03T11:33:00.485Z,1.29
2022-12-03T11:36:04.743Z,1.29
2022-12-03T11:39:08.294Z,1.29
2022-12-03T11:42:25.344Z,1.30
2022-12-03T11:45:33.574Z,1.31
2022-12-03T11:48:44.320Z,1.31
2022-12-03T11:51:45.954Z,1.33
2022-12-03T11:54:51.981Z,1.33
2022-12-03T11:58:01.963Z,1.36
2022-12-03T12:01:06.751Z,1.38
2022-12-03T12:04:28.018Z,1.33
2022-12-03T12:07:36.888Z,1.28
2022-12-03T12:10:39.583Z,1.25
2022-12-03T12:13:41.138Z,1.23
2022-12-03T12:16:51.773Z,1.25
2022-12-03T12:20:26.289Z,1.25
2022-12-03T12:23:28.997Z,1.26
2022-12-03T12:26:30.620Z,1.27
2022-12-03T12:29:32.799Z,1.29
2022-12-03T12:32:44.224Z,1.28
2022-12-03T12:35:45.966Z,1.27
2022-12-03T12:38:47.517Z,1.24
2022-12-03T12:41:50.410Z,1.21
2022-12-03T12:44:52.547Z,1.16
2022-12-03T12:48:03.944Z,1.10
2022-12-03T12:51:13.426Z,1.02
2022-12-03T12:54:17.404Z,1.03
2022-12-03T12:57:22.498Z,1.09
2022-12-03T13:00:24.493Z,1.08
2022-12-03T13:03:29.409Z,1.11
2022-12-03T13:06:32.119Z,1.12
2022-12-03T13:09:33.724Z,1.11
2022-12-03T13:12:36.468Z,1.08
2022-12-03T13:15:45.012Z,1.06
2022-12-03T13:18:49.837Z,1.05
2022-12-03T13:21:55.478Z,1.05
2022-12-03T13:25:04.593Z,1.05
2022-12-03T13:28:07.924Z,0.98
2022-12-03T13:31:22.221Z,1.02
2022-12-03T13:34:26.651Z,1.02
2022-12-03T13:37:31.224Z,1.03
2022-12-03T13:40:36.145Z,1.04
2022-12-03T13:43:44.399Z,1.04
2022-12-03T13:46:46.926Z,1.01
2022-12-03T13:49:53.638Z,0.99
2022-12-03T13:52:56.180Z,1.00
2022-12-03T13:56:27.786Z,0.98
2022-12-03T13:59:29.312Z,0.97
2022-12-03T14:02:30.903Z,0.95
2022-12-03T14:05:32.601Z,0.93
2022-12-03T14:08:34.223Z,0.91
2022-12-03T14:11:55.506Z,0.89
2022-12-03T14:14:57.457Z,0.92
2022-12-03T14:17:59.085Z,0.93
2022-12-03T14:21:00.594Z,0.94
2022-12-03T14:24:02.136Z,0.90
2022-12-03T14:27:03.777Z,0.88
2022-12-03T14:30:05.950Z,0.87
2022-12-03T14:33:14.744Z,0.81
2022-12-03T14:36:16.928Z,0.76
2022-12-03T14:39:18.489Z,0.74
2022-12-03T14:42:20.020Z,0.70
2022-12-03T14:45:22.944Z,0.69
2022-12-03T14:48:24.597Z,0.66
2022-12-03T14:51:26.168Z,0.67
2022-12-03T14:54:28.023Z,0.70
2022-12-03T14:57:29.555Z,0.72
2022-12-03T15:00:31.113Z,0.73
2022-12-03T15:03:32.656Z,0.74
2022-12-03T15:06:34.221Z,0.78
2022-12-03T15:09:35.788Z,0.81
2022-12-03T15:12:37.477Z,0.81
2022-12-03T15:15:39.047Z,0.82
2022-12-03T15:18:40.579Z,0.84
2022-12-03T15:21:42.175Z,0.85
2022-12-03T15:24:43.748Z,0.83
2022-12-03T15:27:45.288Z,0.81
2022-12-03T15:30:46.830Z,0.81
2022-12-03T15:33:48.555Z,0.71
2022-12-03T15:36:51.150Z,0.64
2022-12-03T15:39:52.686Z,0.63
2022-12-03T15:42:54.560Z,0.59
2022-12-03T15:45:56.139Z,0.60
2022-12-03T15:48:57.900Z,0.59
2022-12-03T15:51:59.454Z,0.59
2022-12-03T15:55:01.548Z,0.58
2022-12-03T15:58:03.061Z,0.60
2022-12-03T16:01:08.575Z,0.60
2022-12-03T16:04:10.199Z,0.60
2022-12-03T16:07:11.835Z,0.60
2022-12-03T16:10:14.103Z,0.57
2022-12-03T16:13:15.691Z,0.61
2022-12-03T16:16:17.382Z,0.58
2022-12-03T16:19:18.999Z,0.55
2022-12-03T16:22:20.628Z,0.58
2022-12-03T16:25:22.190Z,0.56
2022-12-03T16:28:23.774Z,0.57
2022-12-03T16:31:25.466Z,0.58
2022-12-03T16:34:27.201Z,0.62
2022-12-03T16:37:28.733Z,0.59
2022-12-03T16:40:30.311Z,0.55
2022-12-03T16:43:34.228Z,0.56
2022-12-03T16:46:35.793Z,0.53
2022-12-03T16:49:37.557Z,0.51
2022-12-03T16:52:39.071Z,0.50
2022-12-03T16:55:40.948Z,0.50
2022-12-03T16:58:42.894Z,0.48
2022-12-03T17:01:44.541Z,0.48
2022-12-03T17:04:46.188Z,0.46
2022-12-03T17:07:49.109Z,0.49
2022-12-03T17:10:50.783Z,0.46
2022-12-03T17:13:52.386Z,0.47
2022-12-03T17:16:53.920Z,0.44
2022-12-03T17:19:55.638Z,0.46
2022-12-03T17:22:58.298Z,0.46
2022-12-03T17:25:59.834Z,0.46
2022-12-03T17:29:01.405Z,0.46
2022-12-03T17:32:03.219Z,0.45
2022-12-03T17:35:05.154Z,0.43
2022-12-03T17:38:06.791Z,0.43
2022-12-03T17:41:08.642Z,0.43
2022-12-03T17:44:12.969Z,0.46
2022-12-03T17:47:16.802Z,0.49
2022-12-03T17:50:18.446Z,0.49
2022-12-03T17:53:19.988Z,0.47
2022-12-03T17:56:21.614Z,0.47
2022-12-03T17:59:23.171Z,0.44
2022-12-03T18:02:24.690Z,0.40
2022-12-03T18:05:26.294Z,0.39
2022-12-03T18:08:27.956Z,0.33
2022-12-03T18:11:29.686Z,0.33
2022-12-03T18:14:31.220Z,0.39
2022-12-03T18:17:32.776Z,0.39
2022-12-03T18:20:34.402Z,0.38
2022-12-03T18:23:36.059Z,0.38
2022-12-03T18:26:37.897Z,0.37
2022-12-03T18:29:39.453Z,0.34
2022-12-03T18:32:41.045Z,0.29
2022-12-03T18:35:43.204Z,0.33
2022-12-03T18:38:44.862Z,0.29
2022-12-03T18:41:46.625Z,0.28
2022-12-03T18:44:50.245Z,0.30
2022-12-03T18:47:51.909Z,0.33
2022-12-03T18:50:54.691Z,0.35
2022-12-03T18:53:56.217Z,0.32
2022-12-03T18:56:57.880Z,0.39
2022-12-03T18:59:59.602Z,0.36
2022-12-03T19:03:05.349Z,0.35
2022-12-03T19:06:17.205Z,0.34
2022-12-03T19:09:20.509Z,0.32
2022-12-03T19:12:22.183Z,0.34
2022-12-03T19:15:24.053Z,0.33
2022-12-03T19:18:25.700Z,0.31
2022-12-03T19:21:33.357Z,0.29
2022-12-03T19:24:35.417Z,0.31
2022-12-03T19:27:36.953Z,0.25
2022-12-03T19:30:38.507Z,0.28
2022-12-03T19:33:42.307Z,0.29
2022-12-03T19:36:43.925Z,0.28
2022-12-03T19:39:45.752Z,0.23
2022-12-03T19:42:47.293Z,0.32
2022-12-03T19:45:48.902Z,0.33
2022-12-03T19:48:50.552Z,0.33
2022-12-03T19:51:52.134Z,0.35
2022-12-03T19:54:53.741Z,0.35
2022-12-03T19:57:55.295Z,0.33
2022-12-03T20:00:57.645Z,0.31
2022-12-03T20:04:00.896Z,0.29
2022-12-03T20:07:02.516Z,0.26
2022-12-03T20:10:04.649Z,0.25
2022-12-03T20:13:08.111Z,0.23
2022-12-03T20:16:13.377Z,0.22
2022-12-03T20:19:16.439Z,0.24
2022-12-03T20:22:17.937Z,0.24
2022-12-03T20:25:19.496Z,0.26
2022-12-03T20:28:21.097Z,0.26
2022-12-03T20:31:24.705Z,0.24
2022-12-03T20:34:26.325Z,0.23
2022-12-03T20:37:27.823Z,0.25
2022-12-03T20:40:29.434Z,0.24
2022-12-03T20:43:31.154Z,0.25
2022-12-03T20:46:32.921Z,0.25
2022-12-03T20:49:35.243Z,0.24
2022-12-03T20:52:36.932Z,0.22
2022-12-03T20:55:38.676Z,0.22
2022-12-03T20:58:40.151Z,0.22
2022-12-03T21:01:42.937Z,0.18
2022-12-03T21:04:44.621Z,0.17
2022-12-03T21:07:52.387Z,0.17
2022-12-03T21:10:54.049Z,0.12
2022-12-03T21:13:55.945Z,0.15
2022-12-03T21:17:08.280Z,0.14
2022-12-03T21:20:10.823Z,0.18
2022-12-03T21:23:14.035Z,0.18
2022-12-03T21:26:21.081Z,0.19
2022-12-03T21:29:23.422Z,0.21
2022-12-03T21:32:25.129Z,0.26
2022-12-03T21:35:26.662Z,0.21
2022-12-03T21:38:29.575Z,0.25
2022-12-03T21:41:31.896Z,0.26
2022-12-03T21:44:35.023Z,0.27
2022-12-03T21:47:37.662Z,0.28
2022-12-03T21:50:39.390Z,0.29
2022-12-03T21:53:43.621Z,0.31
2022-12-03T21:56:45.391Z,0.32
2022-12-03T21:59:46.980Z,0.33
2022-12-03T22:02:48.582Z,0.36
2022-12-03T22:05:50.499Z,0.42
2022-12-03T22:08:52.129Z,0.38
2022-12-03T22:11:56.740Z,0.44
2022-12-03T22:14:58.348Z,0.46
2022-12-03T22:18:00.077Z,0.43
2022-12-03T22:21:10.976Z,0.40
2022-12-03T22:24:13.094Z,0.41
2022-12-03T22:27:14.747Z,0.37
2022-12-03T22:30:16.470Z,0.35
2022-12-03T22:33:18.039Z,0.32
2022-12-03T22:36:21.415Z,0.31
2022-12-03T22:39:23.361Z,0.29
2022-12-03T22:42:24.939Z,0.27
2022-12-03T22:45:26.503Z,0.26
2022-12-03T22:48:28.256Z,0.26
2022-12-03T22:51:30.480Z,0.24
2022-12-03T22:54:32.009Z,0.27
2022-12-03T22:57:33.596Z,0.30
2022-12-03T23:00:37.947Z,0.31
2022-12-03T23:03:39.545Z,0.31
2022-12-03T23:06:41.336Z,0.27
2022-12-03T23:09:42.930Z,0.29
2022-12-03T23:12:44.459Z,0.25
2022-12-03T23:15:51.488Z,0.29
2022-12-03T23:18:53.291Z,0.28
2022-12-03T23:21:54.815Z,0.28
2022-12-03T23:24:56.393Z,0.33
2022-12-03T23:27:57.949Z,0.33
2022-12-03T23:31:02.899Z,0.28
2022-12-03T23:34:04.713Z,0.33
2022-12-03T23:37:06.350Z,0.32
2022-12-03T23:40:08.261Z,0.33
2022-12-03T23:43:09.913Z,0.32
2022-12-03T23:46:16.138Z,0.32
2022-12-03T23:49:17.706Z,0.33
2022-12-03T23:52:19.237Z,0.34
2022-12-03T23:55:21.164Z,0.34
2022-12-03T23:58:22.738Z,0.38
